Terminal Aerodrome Forecast
Issued by NWS

Home | Current Version | Previous Version | Graphics & Text | Print | Product List | Glossary On
Versions: 1 2 3 4 5 6 7 8 9 10 11 12 13 14 15 16 17 18 19 20 21
061
FTUS42 KMHX 221141
TAFISO
TAF
KISO 221141Z 2212/2312 20005KT 5SM BR OVC003
     FM221400 21007KT P6SM OVC005
     FM221530 21008KT P6SM BKN025
     FM221700 21009KT P6SM SCT025
     FM230800 00000KT 3/4SM BR OVC005
      AMD LTD TO CLD VIS AND WIND=

USA.gov is the U.S. government's official web portal to all federal, state and local government web resources and services.